createdAt,value
2022-12-23T03:47:21.231Z,3.96
2022-12-23T03:50:25.308Z,3.97
2022-12-23T03:53:32.213Z,3.44
2022-12-23T03:56:46.018Z,3.40
2022-12-23T03:59:54.075Z,3.42
2022-12-23T04:02:56.514Z,3.42
2022-12-23T04:06:05.321Z,3.44
2022-12-23T04:09:08.890Z,3.54
2022-12-23T04:12:11.646Z,3.48
2022-12-23T04:15:13.802Z,3.44
2022-12-23T04:18:16.473Z,3.39
2022-12-23T04:21:18.657Z,3.42
2022-12-23T04:24:21.150Z,3.36
2022-12-23T04:27:23.359Z,3.41
2022-12-23T04:30:31.511Z,3.44
2022-12-23T04:33:36.290Z,3.40
2022-12-23T04:36:38.659Z,3.47
2022-12-23T04:39:40.802Z,3.43
2022-12-23T04:42:43.257Z,3.48
2022-12-23T04:45:50.115Z,3.35
2022-12-23T04:48:52.625Z,3.36
2022-12-23T04:51:54.721Z,3.33
2022-12-23T04:54:57.096Z,3.28
2022-12-23T04:57:59.293Z,3.19
2022-12-23T05:01:12.273Z,3.15
2022-12-23T05:04:14.440Z,3.10
2022-12-23T05:07:16.991Z,3.12
2022-12-23T05:10:19.176Z,3.05
2022-12-23T05:13:21.875Z,3.11
2022-12-23T05:16:24.104Z,3.08
2022-12-23T05:19:26.580Z,2.92
2022-12-23T05:22:28.730Z,2.91
2022-12-23T05:25:33.890Z,2.98
2022-12-23T05:28:36.030Z,2.86
2022-12-23T05:31:38.479Z,2.79
2022-12-23T05:34:40.587Z,2.79
2022-12-23T05:37:42.962Z,2.80
2022-12-23T05:40:45.133Z,2.73
2022-12-23T05:43:47.681Z,2.67
2022-12-23T05:46:49.824Z,2.59
2022-12-23T05:49:52.284Z,2.52
2022-12-23T05:52:57.783Z,2.54
2022-12-23T05:56:04.559Z,2.50
2022-12-23T05:59:06.717Z,2.49
2022-12-23T06:02:09.369Z,2.50
2022-12-23T06:05:12.513Z,2.55
2022-12-23T06:08:14.620Z,2.54
2022-12-23T06:11:17.580Z,2.56
2022-12-23T06:14:25.181Z,2.53
2022-12-23T06:17:31.268Z,2.45
2022-12-23T06:20:33.660Z,2.42
2022-12-23T06:23:36.129Z,2.38
2022-12-23T06:26:38.287Z,2.37
2022-12-23T06:29:40.933Z,2.29
2022-12-23T06:32:43.199Z,2.21
2022-12-23T06:35:45.678Z,2.27
2022-12-23T06:38:47.875Z,2.35
2022-12-23T06:41:50.424Z,2.26
2022-12-23T06:44:52.575Z,2.25
2022-12-23T06:47:55.002Z,2.22
2022-12-23T06:50:57.171Z,2.27
2022-12-23T06:54:00.370Z,2.24
2022-12-23T06:57:05.318Z,2.31
2022-12-23T07:00:09.191Z,2.38
2022-12-23T07:03:11.569Z,2.44
2022-12-23T07:06:14.473Z,2.42
2022-12-23T07:09:16.847Z,2.41
2022-12-23T07:12:19.473Z,2.40
2022-12-23T07:15:21.727Z,2.40
2022-12-23T07:18:24.886Z,2.46
2022-12-23T07:21:29.841Z,2.42
2022-12-23T07:24:32.609Z,2.47
2022-12-23T07:27:35.075Z,2.31
2022-12-23T07:30:37.601Z,2.30
2022-12-23T07:33:39.695Z,2.49
2022-12-23T07:36:42.143Z,2.52
2022-12-23T07:39:44.330Z,2.45
2022-12-23T07:42:49.866Z,2.46
2022-12-23T07:45:59.229Z,2.47
2022-12-23T07:49:02.841Z,2.49
2022-12-23T07:52:04.946Z,2.57
2022-12-23T07:55:07.823Z,2.71
2022-12-23T07:58:10.172Z,2.65
2022-12-23T08:01:12.760Z,2.53
2022-12-23T08:04:15.182Z,2.51
2022-12-23T08:07:17.359Z,2.54
2022-12-23T08:10:19.783Z,2.71
2022-12-23T08:13:21.926Z,2.73
2022-12-23T08:16:24.419Z,2.82
2022-12-23T08:19:26.587Z,2.99
2022-12-23T08:22:31.876Z,3.08
2022-12-23T08:25:34.043Z,2.99
2022-12-23T08:28:38.180Z,2.98
2022-12-23T08:31:40.387Z,3.03
2022-12-23T08:34:42.884Z,2.96
2022-12-23T08:37:45.100Z,2.89
2022-12-23T08:40:47.632Z,2.90
2022-12-23T08:43:51.249Z,2.83
2022-12-23T08:46:54.653Z,2.82
2022-12-23T08:49:56.917Z,2.90
2022-12-23T08:52:59.482Z,2.98
2022-12-23T08:56:04.418Z,3.03
2022-12-23T08:59:07.407Z,3.01
2022-12-23T09:02:11.558Z,3.09
2022-12-23T09:05:14.211Z,2.99
2022-12-23T09:08:16.329Z,3.01
2022-12-23T09:11:21.712Z,3.17
2022-12-23T09:14:23.919Z,3.31
2022-12-23T09:17:26.339Z,3.38
2022-12-23T09:20:28.441Z,3.31
2022-12-23T09:23:31.177Z,3.26
2022-12-23T09:26:33.371Z,3.37
2022-12-23T09:29:35.844Z,3.13
2022-12-23T09:32:37.997Z,3.11
2022-12-23T09:35:40.479Z,3.02
2022-12-23T09:38:42.667Z,3.08
2022-12-23T09:42:01.255Z,3.22
2022-12-23T09:45:27.935Z,3.36
2022-12-23T09:48:38.973Z,3.46
2022-12-23T09:51:41.112Z,3.59
2022-12-23T09:54:48.475Z,3.50
2022-12-23T09:58:01.935Z,3.27
2022-12-23T10:01:40.232Z,3.22
2022-12-23T10:05:11.561Z,3.12
2022-12-23T10:08:28.676Z,3.15
2022-12-23T10:11:42.690Z,3.08
2022-12-23T10:14:48.036Z,3.02
2022-12-23T10:17:56.154Z,3.05
2022-12-23T10:21:04.151Z,3.17
2022-12-23T10:24:21.331Z,3.26
2022-12-23T10:27:31.567Z,3.23
2022-12-23T10:34:13.036Z,3.32
2022-12-23T10:37:21.542Z,3.32
2022-12-23T10:40:33.017Z,3.37
2022-12-23T10:44:11.111Z,3.41
2022-12-23T10:47:39.369Z,3.42
2022-12-23T10:50:54.527Z,3.40
2022-12-23T10:54:19.421Z,3.47
2022-12-23T10:57:23.608Z,3.51
2022-12-23T11:00:25.963Z,3.58
2022-12-23T11:03:38.114Z,3.61
2022-12-23T11:07:10.575Z,3.51
2022-12-23T11:10:28.634Z,3.44
2022-12-23T11:13:43.415Z,3.40
2022-12-23T11:16:46.984Z,3.45
2022-12-23T11:20:26.086Z,3.51
2022-12-23T11:23:31.824Z,3.47
2022-12-23T11:26:35.484Z,3.46
2022-12-23T11:29:47.498Z,3.48
2022-12-23T11:32:52.477Z,3.36
2022-12-23T11:36:03.122Z,3.46
2022-12-23T11:39:19.356Z,3.56
2022-12-23T11:42:27.785Z,3.53
2022-12-23T11:45:34.207Z,3.45
2022-12-23T11:48:36.575Z,3.59
2022-12-23T11:51:38.720Z,3.75
